sensor_id;sensor_type;location;lat;lon;timestamp;pressure;altitude;pressure_sealevel;temperature;humidity
19086;BME280;9675;51.538;6.728;2022-10-15T00:01:12;100427.22;;;14.82;100.00
19086;BME280;9675;51.538;6.728;2022-10-15T00:03:43;100423.72;;;14.80;100.00
19086;BME280;9675;51.538;6.728;2022-10-15T00:06:13;100422.84;;;14.80;100.00
19086;BME280;9675;51.538;6.728;2022-10-15T00:08:41;100415.03;;;14.78;100.00
19086;BME280;9675;51.538;6.728;2022-10-15T00:11:12;100414.16;;;14.78;100.00
19086;BME280;9675;51.538;6.728;2022-10-15T00:13:40;100421.91;;;14.76;100.00
19086;BME280;9675;51.538;6.728;2022-10-15T00:16:10;100412.38;;;14.77;100.00
19086;BME280;9675;51.538;6.728;2022-10-15T00:18:38;100408.03;;;14.74;100.00
19086;BME280;9675;51.538;6.728;2022-10-15T00:21:08;100411.44;;;14.73;100.00
19086;BME280;9675;51.538;6.728;2022-10-15T00:23:37;100407.09;;;14.72;100.00
19086;BME280;9675;51.538;6.728;2022-10-15T00:26:07;100409.69;;;14.72;100.00
19086;BME280;9675;51.538;6.728;2022-10-15T00:28:35;100411.38;;;14.70;100.00
19086;BME280;9675;51.538;6.728;2022-10-15T00:31:05;100410.44;;;14.68;100.00
19086;BME280;9675;51.538;6.728;2022-10-15T00:33:33;100407.84;;;14.68;100.00
19086;BME280;9675;51.538;6.728;2022-10-15T00:36:03;100401.75;;;14.66;100.00
19086;BME280;9675;51.538;6.728;2022-10-15T00:38:32;100403.50;;;14.66;100.00
19086;BME280;9675;51.538;6.728;2022-10-15T00:41:00;100407.78;;;14.65;100.00
19086;BME280;9675;51.538;6.728;2022-10-15T00:43:42;100405.09;;;14.62;100.00
19086;BME280;9675;51.538;6.728;2022-10-15T00:46:27;100408.53;;;14.61;100.00
19086;BME280;9675;51.538;6.728;2022-10-15T00:48:59;100411.09;;;14.60;100.00
19086;BME280;9675;51.538;6.728;2022-10-15T00:51:34;100412.81;;;14.59;100.00
19086;BME280;9675;51.538;6.728;2022-10-15T00:54:05;100419.66;;;14.57;100.00
19086;BME280;9675;51.538;6.728;2022-10-15T00:56:34;100411.84;;;14.56;100.00
19086;BME280;9675;51.538;6.728;2022-10-15T00:59:05;100414.41;;;14.54;100.00
19086;BME280;9675;51.538;6.728;2022-10-15T01:01:32;100423.88;;;14.54;100.00
19086;BME280;9675;51.538;6.728;2022-10-15T01:04:01;100408.22;;;14.49;100.00
19086;BME280;9675;51.538;6.728;2022-10-15T01:06:30;100413.41;;;14.49;100.00
19086;BME280;9675;51.538;6.728;2022-10-15T01:08:57;100408.16;;;14.48;100.00
19086;BME280;9675;51.538;6.728;2022-10-15T01:11:38;100410.69;;;14.44;100.00
19086;BME280;9675;51.538;6.728;2022-10-15T01:14:31;100415.00;;;14.44;100.00
19086;BME280;9675;51.538;6.728;2022-10-15T01:17:08;100421.88;;;14.43;100.00
19086;BME280;9675;51.538;6.728;2022-10-15T01:20:14;100416.59;;;14.40;100.00
19086;BME280;9675;51.538;6.728;2022-10-15T01:23:10;100427.81;;;14.39;100.00
19086;BME280;9675;51.538;6.728;2022-10-15T01:25:57;100426.88;;;14.37;100.00
19086;BME280;9675;51.538;6.728;2022-10-15T01:28:47;100419.03;;;14.34;100.00
19086;BME280;9675;51.538;6.728;2022-10-15T01:31:28;100429.38;;;14.34;100.00
19086;BME280;9675;51.538;6.728;2022-10-15T01:34:02;100426.69;;;14.31;100.00
19086;BME280;9675;51.538;6.728;2022-10-15T01:36:37;100426.66;;;14.30;100.00
19086;BME280;9675;51.538;6.728;2022-10-15T01:39:12;100424.03;;;14.28;100.00
19086;BME280;9675;51.538;6.728;2022-10-15T01:41:48;100424.84;;;14.27;100.00
19086;BME280;9675;51.538;6.728;2022-10-15T01:44:21;100428.28;;;14.26;100.00
19086;BME280;9675;51.538;6.728;2022-10-15T01:46:56;100415.31;;;14.25;100.00
19086;BME280;9675;51.538;6.728;2022-10-15T01:49:30;100417.88;;;14.25;100.00
19086;BME280;9675;51.538;6.728;2022-10-15T01:52:05;100414.41;;;14.24;100.00
19086;BME280;9675;51.538;6.728;2022-10-15T01:54:35;100412.59;;;14.22;100.00
19086;BME280;9675;51.538;6.728;2022-10-15T01:57:05;100416.06;;;14.22;100.00
19086;BME280;9675;51.538;6.728;2022-10-15T01:59:33;100409.13;;;14.21;100.00
19086;BME280;9675;51.538;6.728;2022-10-15T02:02:02;100415.16;;;14.20;100.00
19086;BME280;9675;51.538;6.728;2022-10-15T02:04:30;100405.66;;;14.19;100.00
19086;BME280;9675;51.538;6.728;2022-10-15T02:07:03;100405.66;;;14.19;100.00
19086;BME280;9675;51.538;6.728;2022-10-15T02:09:43;100400.38;;;14.16;100.00
19086;BME280;9675;51.538;6.728;2022-10-15T02:12:35;100403.00;;;14.18;100.00
19086;BME280;9675;51.538;6.728;2022-10-15T02:15:10;100405.53;;;14.16;100.00
19086;BME280;9675;51.538;6.728;2022-10-15T02:17:51;100396.91;;;14.16;100.00
19086;BME280;9675;51.538;6.728;2022-10-15T02:20:29;100398.59;;;14.15;100.00
19086;BME280;9675;51.538;6.728;2022-10-15T02:23:04;100395.13;;;14.15;100.00
19086;BME280;9675;51.538;6.728;2022-10-15T02:25:36;100394.22;;;14.13;100.00
19086;BME280;9675;51.538;6.728;2022-10-15T02:28:07;100392.47;;;14.12;100.00
19086;BME280;9675;51.538;6.728;2022-10-15T02:30:38;100383.81;;;14.11;100.00
19086;BME280;9675;51.538;6.728;2022-10-15T02:33:09;100390.72;;;14.11;100.00
19086;BME280;9675;51.538;6.728;2022-10-15T02:35:37;100390.72;;;14.11;100.00
19086;BME280;9675;51.538;6.728;2022-10-15T02:38:09;100387.25;;;14.10;100.00
19086;BME280;9675;51.538;6.728;2022-10-15T02:40:42;100382.88;;;14.08;100.00
19086;BME280;9675;51.538;6.728;2022-10-15T02:43:14;100392.41;;;14.09;100.00
19086;BME280;9675;51.538;6.728;2022-10-15T02:45:41;100394.13;;;14.10;100.00
19086;BME280;9675;51.538;6.728;2022-10-15T02:48:09;100389.81;;;14.09;100.00
19086;BME280;9675;51.538;6.728;2022-10-15T02:50:36;100387.22;;;14.09;100.00
19086;BME280;9675;51.538;6.728;2022-10-15T02:53:03;100395.00;;;14.09;100.00
19086;BME280;9675;51.538;6.728;2022-10-15T02:55:30;100394.06;;;14.07;100.00
19086;BME280;9675;51.538;6.728;2022-10-15T02:57:58;100394.94;;;14.07;100.00
19086;BME280;9675;51.538;6.728;2022-10-15T03:00:25;100388.88;;;14.07;100.00
19086;BME280;9675;51.538;6.728;2022-10-15T03:02:52;100389.69;;;14.05;100.00
19086;BME280;9675;51.538;6.728;2022-10-15T03:05:21;100387.91;;;14.03;100.00
19086;BME280;9675;51.538;6.728;2022-10-15T03:07:48;100383.63;;;14.03;100.00
19086;BME280;9675;51.538;6.728;2022-10-15T03:10:15;100375.81;;;14.02;100.00
19086;BME280;9675;51.538;6.728;2022-10-15T03:12:42;100379.22;;;14.01;100.00
19086;BME280;9675;51.538;6.728;2022-10-15T03:15:09;100375.75;;;14.00;100.00
19086;BME280;9675;51.538;6.728;2022-10-15T03:17:36;100375.69;;;13.99;100.00
19086;BME280;9675;51.538;6.728;2022-10-15T03:20:05;100368.78;;;13.98;100.00
19086;BME280;9675;51.538;6.728;2022-10-15T03:22:33;100377.38;;;13.97;100.00
19086;BME280;9675;51.538;6.728;2022-10-15T03:25:00;100381.63;;;13.95;100.00
19086;BME280;9675;51.538;6.728;2022-10-15T03:27:27;100373.88;;;13.95;100.00
19086;BME280;9675;51.538;6.728;2022-10-15T03:29:54;100376.44;;;13.93;100.00
19086;BME280;9675;51.538;6.728;2022-10-15T03:32:21;100371.25;;;13.93;100.00
19086;BME280;9675;51.538;6.728;2022-10-15T03:34:48;100362.63;;;13.93;100.00
19086;BME280;9675;51.538;6.728;2022-10-15T03:37:15;100358.25;;;13.92;100.00
19086;BME280;9675;51.538;6.728;2022-10-15T03:39:43;100354.75;;;13.90;100.00
19086;BME280;9675;51.538;6.728;2022-10-15T03:42:10;100351.38;;;13.92;100.00
19086;BME280;9675;51.538;6.728;2022-10-15T03:44:37;100352.22;;;13.91;100.00
19086;BME280;9675;51.538;6.728;2022-10-15T03:47:04;100359.16;;;13.92;100.00
19086;BME280;9675;51.538;6.728;2022-10-15T03:49:32;100352.22;;;13.91;100.00
19086;BME280;9675;51.538;6.728;2022-10-15T03:51:59;100359.97;;;13.91;100.00
19086;BME280;9675;51.538;6.728;2022-10-15T03:54:26;100353.03;;;13.90;100.00
19086;BME280;9675;51.538;6.728;2022-10-15T03:56:54;100353.03;;;13.90;100.00
19086;BME280;9675;51.538;6.728;2022-10-15T03:59:21;100350.38;;;13.87;100.00
19086;BME280;9675;51.538;6.728;2022-10-15T04:01:49;100351.25;;;13.88;100.00
19086;BME280;9675;51.538;6.728;2022-10-15T04:04:16;100360.75;;;13.89;100.00
19086;BME280;9675;51.538;6.728;2022-10-15T04:06:43;100356.44;;;13.88;100.00
19086;BME280;9675;51.538;6.728;2022-10-15T04:09:13;100362.38;;;13.85;100.00
19086;BME280;9675;51.538;6.728;2022-10-15T04:11:40;100354.56;;;13.84;100.00
19086;BME280;9675;51.538;6.728;2022-10-15T04:14:09;100354.56;;;13.84;100.00
19086;BME280;9675;51.538;6.728;2022-10-15T04:16:36;100359.75;;;13.84;100.00
19086;BME280;9675;51.538;6.728;2022-10-15T04:19:03;100363.19;;;13.83;100.00
19086;BME280;9675;51.538;6.728;2022-10-15T04:21:30;100363.19;;;13.83;100.00
19086;BME280;9675;51.538;6.728;2022-10-15T04:23:57;100358.78;;;13.80;100.00
19086;BME280;9675;51.538;6.728;2022-10-15T04:26:24;100363.97;;;13.80;100.00
19086;BME280;9675;51.538;6.728;2022-10-15T04:28:51;100354.41;;;13.78;100.00
19086;BME280;9675;51.538;6.728;2022-10-15T04:31:20;100365.63;;;13.78;100.00
19086;BME280;9675;51.538;6.728;2022-10-15T04:33:48;100361.31;;;13.79;100.00
19086;BME280;9675;51.538;6.728;2022-10-15T04:36:15;100370.78;;;13.78;100.00
19086;BME280;9675;51.538;6.728;2022-10-15T04:38:42;100368.19;;;13.77;100.00
19086;BME280;9675;51.538;6.728;2022-10-15T04:41:11;100364.72;;;13.76;100.00
19086;BME280;9675;51.538;6.728;2022-10-15T04:43:38;100363.88;;;13.77;100.00
19086;BME280;9675;51.538;6.728;2022-10-15T04:46:07;100361.25;;;13.76;100.00
19086;BME280;9675;51.538;6.728;2022-10-15T04:48:37;100356.84;;;13.73;100.00
19086;BME280;9675;51.538;6.728;2022-10-15T04:51:06;100361.16;;;13.73;100.00
19086;BME280;9675;51.538;6.728;2022-10-15T04:53:34;100367.16;;;13.72;100.00
19086;BME280;9675;51.538;6.728;2022-10-15T04:56:02;100358.47;;;13.70;100.00
19086;BME280;9675;51.538;6.728;2022-10-15T04:58:31;100364.59;;;13.72;100.00
19086;BME280;9675;51.538;6.728;2022-10-15T05:00:59;100360.22;;;13.71;100.00
19086;BME280;9675;51.538;6.728;2022-10-15T05:03:27;100358.53;;;13.71;100.00
19086;BME280;9675;51.538;6.728;2022-10-15T05:06:00;100360.28;;;13.72;100.00
19086;BME280;9675;51.538;6.728;2022-10-15T05:08:27;100348.19;;;13.71;100.00
19086;BME280;9675;51.538;6.728;2022-10-15T05:10:59;100356.75;;;13.70;100.00
19086;BME280;9675;51.538;6.728;2022-10-15T05:13:26;100362.81;;;13.71;100.00
19086;BME280;9675;51.538;6.728;2022-10-15T05:15:53;100355.06;;;13.71;100.00
19086;BME280;9675;51.538;6.728;2022-10-15T05:18:20;100350.75;;;13.71;100.00
19086;BME280;9675;51.538;6.728;2022-10-15T05:20:47;100349.00;;;13.70;100.00
19086;BME280;9675;51.538;6.728;2022-10-15T05:23:15;100345.59;;;13.71;100.00
19086;BME280;9675;51.538;6.728;2022-10-15T05:25:42;100336.94;;;13.71;100.00
19086;BME280;9675;51.538;6.728;2022-10-15T05:28:09;100336.06;;;13.70;100.00
19086;BME280;9675;51.538;6.728;2022-10-15T05:30:36;100337.81;;;13.71;100.00
19086;BME280;9675;51.538;6.728;2022-10-15T05:33:03;100333.44;;;13.69;100.00
19086;BME280;9675;51.538;6.728;2022-10-15T05:35:30;100349.94;;;13.72;100.00
19086;BME280;9675;51.538;6.728;2022-10-15T05:37:57;100350.81;;;13.73;100.00
19086;BME280;9675;51.538;6.728;2022-10-15T05:40:25;100352.53;;;13.72;100.00
19086;BME280;9675;51.538;6.728;2022-10-15T05:42:52;100358.53;;;13.71;100.00
19086;BME280;9675;51.538;6.728;2022-10-15T05:45:19;100355.94;;;13.71;100.00
19086;BME280;9675;51.538;6.728;2022-10-15T05:47:46;100355.06;;;13.71;100.00
19086;BME280;9675;51.538;6.728;2022-10-15T05:50:14;100352.47;;;13.71;100.00
19086;BME280;9675;51.538;6.728;2022-10-15T05:52:41;100353.34;;;13.71;100.00
19086;BME280;9675;51.538;6.728;2022-10-15T05:55:08;100357.59;;;13.69;100.00
19086;BME280;9675;51.538;6.728;2022-10-15T05:57:36;100361.94;;;13.70;100.00
19086;BME280;9675;51.538;6.728;2022-10-15T06:00:05;100363.59;;;13.68;100.00
19086;BME280;9675;51.538;6.728;2022-10-15T06:02:32;100361.94;;;13.70;100.00
19086;BME280;9675;51.538;6.728;2022-10-15T06:04:59;100369.69;;;13.70;100.00
19086;BME280;9675;51.538;6.728;2022-10-15T06:07:26;100376.59;;;13.70;100.00
19086;BME280;9675;51.538;6.728;2022-10-15T06:09:53;100370.50;;;13.68;100.00
19086;BME280;9675;51.538;6.728;2022-10-15T06:12:20;100387.75;;;13.67;100.00
19086;BME280;9675;51.538;6.728;2022-10-15T06:14:49;100386.88;;;13.68;100.00
19086;BME280;9675;51.538;6.728;2022-10-15T06:17:16;100379.13;;;13.68;100.00
19086;BME280;9675;51.538;6.728;2022-10-15T06:19:43;100378.28;;;13.68;100.00
19086;BME280;9675;51.538;6.728;2022-10-15T06:22:09;100377.41;;;13.67;100.00
19086;BME280;9675;51.538;6.728;2022-10-15T06:24:36;100379.09;;;13.67;100.00
19086;BME280;9675;51.538;6.728;2022-10-15T06:27:03;100369.53;;;13.64;100.00
19086;BME280;9675;51.538;6.728;2022-10-15T06:29:30;100385.97;;;13.66;100.00
19086;BME280;9675;51.538;6.728;2022-10-15T06:31:59;100380.75;;;13.65;100.00
19086;BME280;9675;51.538;6.728;2022-10-15T06:34:26;100383.38;;;13.66;100.00
19086;BME280;9675;51.538;6.728;2022-10-15T06:36:53;100385.03;;;13.64;100.00
19086;BME280;9675;51.538;6.728;2022-10-15T06:39:20;100380.69;;;13.63;100.00
19086;BME280;9675;51.538;6.728;2022-10-15T06:41:47;100380.69;;;13.63;100.00
19086;BME280;9675;51.538;6.728;2022-10-15T06:44:14;100387.56;;;13.61;100.00
19086;BME280;9675;51.538;6.728;2022-10-15T06:46:41;100385.03;;;13.63;100.00
19086;BME280;9675;51.538;6.728;2022-10-15T06:49:09;100387.59;;;13.63;100.00
19086;BME280;9675;51.538;6.728;2022-10-15T06:51:36;100375.38;;;13.57;100.00
19086;BME280;9675;51.538;6.728;2022-10-15T06:54:03;100392.72;;;13.61;100.00
19086;BME280;9675;51.538;6.728;2022-10-15T06:56:30;100398.81;;;13.63;100.00
19086;BME280;9675;51.538;6.728;2022-10-15T06:58:57;100393.63;;;13.63;100.00
19086;BME280;9675;51.538;6.728;2022-10-15T07:01:25;100392.88;;;13.66;100.00
19086;BME280;9675;51.538;6.728;2022-10-15T07:03:52;100392.88;;;13.66;100.00
19086;BME280;9675;51.538;6.728;2022-10-15T07:06:20;100401.50;;;13.66;100.00
19086;BME280;9675;51.538;6.728;2022-10-15T07:08:47;100403.25;;;13.67;100.00
19086;BME280;9675;51.538;6.728;2022-10-15T07:11:14;100397.22;;;13.67;100.00
19086;BME280;9675;51.538;6.728;2022-10-15T07:13:41;100400.69;;;13.69;100.00
19086;BME280;9675;51.538;6.728;2022-10-15T07:16:11;100399.81;;;13.68;100.00
19086;BME280;9675;51.538;6.728;2022-10-15T07:18:38;100399.81;;;13.68;100.00
19086;BME280;9675;51.538;6.728;2022-10-15T07:21:07;100399.81;;;13.68;100.00
19086;BME280;9675;51.538;6.728;2022-10-15T07:23:35;100398.16;;;13.70;100.00
19086;BME280;9675;51.538;6.728;2022-10-15T07:26:02;100397.28;;;13.70;100.00
19086;BME280;9675;51.538;6.728;2022-10-15T07:28:30;100397.34;;;13.71;100.00
19086;BME280;9675;51.538;6.728;2022-10-15T07:31:00;100399.06;;;13.71;100.00
19086;BME280;9675;51.538;6.728;2022-10-15T07:33:27;100399.94;;;13.71;100.00
19086;BME280;9675;51.538;6.728;2022-10-15T07:35:54;100393.00;;;13.70;100.00
19086;BME280;9675;51.538;6.728;2022-10-15T07:38:21;100390.47;;;13.72;100.00
19086;BME280;9675;51.538;6.728;2022-10-15T07:40:50;100382.63;;;13.70;100.00
19086;BME280;9675;51.538;6.728;2022-10-15T07:43:17;100380.94;;;13.71;100.00
19086;BME280;9675;51.538;6.728;2022-10-15T07:45:47;100374.06;;;13.71;100.00
19086;BME280;9675;51.538;6.728;2022-10-15T07:48:15;100378.41;;;13.72;100.00
19086;BME280;9675;51.538;6.728;2022-10-15T07:50:42;100368.06;;;13.72;100.00
19086;BME280;9675;51.538;6.728;2022-10-15T07:53:09;100369.78;;;13.73;100.00
19086;BME280;9675;51.538;6.728;2022-10-15T07:55:36;100369.00;;;13.76;100.00
19086;BME280;9675;51.538;6.728;2022-10-15T07:58:05;100360.41;;;13.77;100.00
19086;BME280;9675;51.538;6.728;2022-10-15T08:00:33;100364.78;;;13.78;100.00
19086;BME280;9675;51.538;6.728;2022-10-15T08:03:00;100351.84;;;13.79;100.00
19086;BME280;9675;51.538;6.728;2022-10-15T08:05:27;100353.59;;;13.80;100.00
19086;BME280;9675;51.538;6.728;2022-10-15T08:07:54;100356.31;;;13.83;100.00
19086;BME280;9675;51.538;6.728;2022-10-15T08:10:21;100363.19;;;13.83;100.00
19086;BME280;9675;51.538;6.728;2022-10-15T08:12:48;100379.66;;;13.86;100.00
19086;BME280;9675;51.538;6.728;2022-10-15T08:15:17;100382.31;;;13.88;100.00
19086;BME280;9675;51.538;6.728;2022-10-15T08:17:44;100383.19;;;13.88;100.00
19086;BME280;9675;51.538;6.728;2022-10-15T08:20:12;100395.28;;;13.89;100.00
19086;BME280;9675;51.538;6.728;2022-10-15T08:22:39;100391.84;;;13.90;100.00
19086;BME280;9675;51.538;6.728;2022-10-15T08:25:07;100392.81;;;13.94;100.00
19086;BME280;9675;51.538;6.728;2022-10-15T08:27:34;100388.53;;;13.94;100.00
19086;BME280;9675;51.538;6.728;2022-10-15T08:30:01;100389.44;;;13.96;100.00
19086;BME280;9675;51.538;6.728;2022-10-15T08:32:29;100386.09;;;14.00;100.00
19086;BME280;9675;51.538;6.728;2022-10-15T08:34:56;100381.88;;;14.02;100.00
19086;BME280;9675;51.538;6.728;2022-10-15T08:37:23;100381.06;;;14.05;100.00
19086;BME280;9675;51.538;6.728;2022-10-15T08:39:50;100378.59;;;14.10;100.00
19086;BME280;9675;51.538;6.728;2022-10-15T08:42:23;100378.59;;;14.10;100.00
19086;BME280;9675;51.538;6.728;2022-10-15T08:44:58;100363.94;;;14.10;100.00
19086;BME280;9675;51.538;6.728;2022-10-15T08:47:36;100360.63;;;14.16;100.00
19086;BME280;9675;51.538;6.728;2022-10-15T08:50:20;100354.63;;;14.17;100.00
19086;BME280;9675;51.538;6.728;2022-10-15T08:52:53;100355.59;;;14.20;100.00
19086;BME280;9675;51.538;6.728;2022-10-15T08:55:22;100354.81;;;14.23;100.00
19086;BME280;9675;51.538;6.728;2022-10-15T08:57:55;100351.38;;;14.24;100.00
19086;BME280;9675;51.538;6.728;2022-10-15T09:00:32;100355.84;;;14.29;100.00
19086;BME280;9675;51.538;6.728;2022-10-15T09:03:14;100352.44;;;14.32;100.00
19086;BME280;9675;51.538;6.728;2022-10-15T09:05:53;100344.78;;;14.35;100.00
19086;BME280;9675;51.538;6.728;2022-10-15T09:08:28;100339.69;;;14.38;100.00
19086;BME280;9675;51.538;6.728;2022-10-15T09:11:00;100339.75;;;14.41;100.00
19086;BME280;9675;51.538;6.728;2022-10-15T09:13:35;100336.44;;;14.45;100.00
19086;BME280;9675;51.538;6.728;2022-10-15T09:16:14;100329.56;;;14.47;100.00
19086;BME280;9675;51.538;6.728;2022-10-15T09:18:46;100332.28;;;14.52;100.00
19086;BME280;9675;51.538;6.728;2022-10-15T09:21:16;100324.59;;;14.56;100.00
19086;BME280;9675;51.538;6.728;2022-10-15T09:23:44;100328.13;;;14.58;100.00
19086;BME280;9675;51.538;6.728;2022-10-15T09:26:26;100322.19;;;14.62;100.00
19086;BME280;9675;51.538;6.728;2022-10-15T09:29:04;100323.16;;;14.67;100.00
19086;BME280;9675;51.538;6.728;2022-10-15T09:31:41;100318.97;;;14.72;100.00
19086;BME280;9675;51.538;6.728;2022-10-15T09:34:19;100310.47;;;14.78;100.00
19086;BME280;9675;51.538;6.728;2022-10-15T09:36:53;100317.50;;;14.83;100.00
19086;BME280;9675;51.538;6.728;2022-10-15T09:39:45;100321.09;;;14.88;100.00
19086;BME280;9675;51.538;6.728;2022-10-15T09:42:26;100317.78;;;14.94;100.00
19086;BME280;9675;51.538;6.728;2022-10-15T09:44:58;100314.44;;;15.00;100.00
19086;BME280;9675;51.538;6.728;2022-10-15T09:47:29;100315.44;;;15.05;100.00
19086;BME280;9675;51.538;6.728;2022-10-15T09:49:58;100303.44;;;15.10;100.00
19086;BME280;9675;51.538;6.728;2022-10-15T09:52:45;100306.13;;;15.14;100.00
19086;BME280;9675;51.538;6.728;2022-10-15T09:55:36;100309.72;;;15.19;100.00
19086;BME280;9675;51.538;6.728;2022-10-15T09:58:13;100320.19;;;15.24;100.00
19086;BME280;9675;51.538;6.728;2022-10-15T10:00:57;100306.38;;;15.25;100.00
19086;BME280;9675;51.538;6.728;2022-10-15T10:03:27;100302.16;;;15.30;100.00
19086;BME280;9675;51.538;6.728;2022-10-15T10:06:06;100298.78;;;15.34;100.00
19086;BME280;9675;51.538;6.728;2022-10-15T10:08:38;100295.41;;;15.37;100.00
19086;BME280;9675;51.538;6.728;2022-10-15T10:11:09;100286.78;;;15.39;100.00
19086;BME280;9675;51.538;6.728;2022-10-15T10:13:43;100291.22;;;15.43;100.00
19086;BME280;9675;51.538;6.728;2022-10-15T10:16:14;100293.88;;;15.46;100.00
19086;BME280;9675;51.538;6.728;2022-10-15T10:18:42;100287.84;;;15.47;100.00
19086;BME280;9675;51.538;6.728;2022-10-15T10:21:27;100273.16;;;15.49;100.00
19086;BME280;9675;51.538;6.728;2022-10-15T10:24:18;100275.78;;;15.51;100.00
19086;BME280;9675;51.538;6.728;2022-10-15T10:26:47;100279.31;;;15.51;100.00
19086;BME280;9675;51.538;6.728;2022-10-15T10:29:18;100280.22;;;15.53;100.00
19086;BME280;9675;51.538;6.728;2022-10-15T10:31:47;100278.50;;;15.55;100.00
19086;BME280;9675;51.538;6.728;2022-10-15T10:34:21;100271.69;;;15.60;100.00
19086;BME280;9675;51.538;6.728;2022-10-15T10:36:54;100278.78;;;15.67;100.00
19086;BME280;9675;51.538;6.728;2022-10-15T10:39:26;100274.00;;;15.89;100.00
19086;BME280;9675;51.538;6.728;2022-10-15T10:41:57;100272.63;;;16.09;100.00
19086;BME280;9675;51.538;6.728;2022-10-15T10:44:31;100279.88;;;16.25;100.00
19086;BME280;9675;51.538;6.728;2022-10-15T10:47:10;100276.59;;;16.38;100.00
19086;BME280;9675;51.538;6.728;2022-10-15T10:49:40;100276.78;;;16.47;100.00
19086;BME280;9675;51.538;6.728;2022-10-15T10:52:23;100277.00;;;16.60;100.00
19086;BME280;9675;51.538;6.728;2022-10-15T10:55:00;100262.31;;;16.62;100.00
19086;BME280;9675;51.538;6.728;2022-10-15T10:57:42;100264.22;;;16.72;100.00
19086;BME280;9675;51.538;6.728;2022-10-15T11:00:17;100269.44;;;16.75;100.00
19086;BME280;9675;51.538;6.728;2022-10-15T11:02:46;100272.94;;;16.77;100.00
19086;BME280;9675;51.538;6.728;2022-10-15T11:05:15;100279.97;;;16.82;100.00
19086;BME280;9675;51.538;6.728;2022-10-15T11:07:58;100272.25;;;16.87;100.00
19086;BME280;9675;51.538;6.728;2022-10-15T11:10:39;100274.88;;;16.88;100.00
19086;BME280;9675;51.538;6.728;2022-10-15T11:13:30;100261.94;;;16.93;100.00
19086;BME280;9675;51.538;6.728;2022-10-15T11:16:08;100267.16;;;16.96;100.00
19086;BME280;9675;51.538;6.728;2022-10-15T11:18:59;100259.31;;;16.94;100.00
19086;BME280;9675;51.538;6.728;2022-10-15T11:21:47;100251.53;;;16.93;100.00
19086;BME280;9675;51.538;6.728;2022-10-15T11:24:28;100251.63;;;17.00;100.00
19086;BME280;9675;51.538;6.728;2022-10-15T11:27:20;100250.72;;;16.97;100.00
19086;BME280;9675;51.538;6.728;2022-10-15T11:29:56;100250.75;;;17.00;100.00
19086;BME280;9675;51.538;6.728;2022-10-15T11:32:43;100247.34;;;17.04;100.00
19086;BME280;9675;51.538;6.728;2022-10-15T11:35:33;100242.16;;;17.04;100.00
19086;BME280;9675;51.538;6.728;2022-10-15T11:38:23;100243.84;;;17.02;100.00
19086;BME280;9675;51.538;6.728;2022-10-15T11:41:13;100226.47;;;17.01;100.00
19086;BME280;9675;51.538;6.728;2022-10-15T11:44:12;100231.69;;;17.01;100.00
19086;BME280;9675;51.538;6.728;2022-10-15T11:46:52;100228.22;;;16.99;100.00
19086;BME280;9675;51.538;6.728;2022-10-15T11:49:37;100238.56;;;16.96;100.00
19086;BME280;9675;51.538;6.728;2022-10-15T11:52:25;100225.53;;;16.96;100.00
19086;BME280;9675;51.538;6.728;2022-10-15T11:55:03;100227.28;;;16.97;100.00
19086;BME280;9675;51.538;6.728;2022-10-15T11:57:37;100225.59;;;17.00;100.00
19086;BME280;9675;51.538;6.728;2022-10-15T12:00:18;100234.28;;;17.01;100.00
19086;BME280;9675;51.538;6.728;2022-10-15T12:02:51;100228.22;;;17.02;100.00
19086;BME280;9675;51.538;6.728;2022-10-15T12:05:29;100232.59;;;17.03;100.00
19086;BME280;9675;51.538;6.728;2022-10-15T12:07:57;100223.94;;;17.06;100.00
19086;BME280;9675;51.538;6.728;2022-10-15T12:10:41;100223.94;;;17.06;100.00
19086;BME280;9675;51.538;6.728;2022-10-15T12:13:21;100228.25;;;17.04;100.00
19086;BME280;9675;51.538;6.728;2022-10-15T12:16:05;100209.19;;;17.03;100.00
19086;BME280;9675;51.538;6.728;2022-10-15T12:18:42;100210.94;;;17.06;100.00
19086;BME280;9675;51.538;6.728;2022-10-15T12:21:32;100214.50;;;17.12;100.00
19086;BME280;9675;51.538;6.728;2022-10-15T12:24:00;100206.72;;;17.15;100.00
19086;BME280;9675;51.538;6.728;2022-10-15T12:26:30;100204.94;;;17.11;100.00
19086;BME280;9675;51.538;6.728;2022-10-15T12:29:03;100205.81;;;17.12;100.00
19086;BME280;9675;51.538;6.728;2022-10-15T12:31:48;100199.72;;;17.08;100.00
19086;BME280;9675;51.538;6.728;2022-10-15T12:34:35;100205.78;;;17.09;100.00
19086;BME280;9675;51.538;6.728;2022-10-15T12:37:15;100192.78;;;17.10;100.00
19086;BME280;9675;51.538;6.728;2022-10-15T12:39:44;100189.38;;;17.14;100.00
19086;BME280;9675;51.538;6.728;2022-10-15T12:42:26;100180.69;;;17.15;100.00
19086;BME280;9675;51.538;6.728;2022-10-15T12:44:58;100186.00;;;17.20;100.00
19086;BME280;9675;51.538;6.728;2022-10-15T12:47:47;100190.31;;;17.21;100.00
19086;BME280;9675;51.538;6.728;2022-10-15T12:50:20;100198.13;;;17.21;100.00
19086;BME280;9675;51.538;6.728;2022-10-15T12:52:59;100185.97;;;17.21;100.00
19086;BME280;9675;51.538;6.728;2022-10-15T12:55:38;100192.97;;;17.25;100.00
19086;BME280;9675;51.538;6.728;2022-10-15T12:58:33;100182.59;;;17.28;100.00
19086;BME280;9675;51.538;6.728;2022-10-15T13:01:26;100186.09;;;17.32;100.00
19086;BME280;9675;51.538;6.728;2022-10-15T13:03:55;100183.53;;;17.33;100.00
19086;BME280;9675;51.538;6.728;2022-10-15T13:06:33;100184.44;;;17.35;100.00
19086;BME280;9675;51.538;6.728;2022-10-15T13:09:20;100181.00;;;17.41;100.00
19086;BME280;9675;51.538;6.728;2022-10-15T13:11:51;100183.66;;;17.44;100.00
19086;BME280;9675;51.538;6.728;2022-10-15T13:14:32;100198.41;;;17.43;100.00
19086;BME280;9675;51.538;6.728;2022-10-15T13:17:13;100193.22;;;17.47;100.00